sensor_id;sensor_type;location;lat;lon;timestamp;pressure;altitude;pressure_sealevel;temperature
51561;BMP280;37654;51.262;17.058;2023-01-15T00:01:34;98466.56;;;7.90
51561;BMP280;37654;51.262;17.058;2023-01-15T00:04:01;98455.88;;;8.01
51561;BMP280;37654;51.262;17.058;2023-01-15T00:06:33;98451.00;;;7.92
51561;BMP280;37654;51.262;17.058;2023-01-15T00:08:59;98443.31;;;7.91
51561;BMP280;37654;51.262;17.058;2023-01-15T00:11:25;98436.59;;;7.87
51561;BMP280;37654;51.262;17.058;2023-01-15T00:13:51;98438.31;;;7.87
51561;BMP280;37654;51.262;17.058;2023-01-15T00:16:21;98434.69;;;7.92
51561;BMP280;37654;51.262;17.058;2023-01-15T00:19:05;98432.94;;;7.94
51561;BMP280;37654;51.262;17.058;2023-01-15T00:21:33;98418.44;;;7.90
51561;BMP280;37654;51.262;17.058;2023-01-15T00:23:58;98425.19;;;7.94
51561;BMP280;37654;51.262;17.058;2023-01-15T00:26:38;98419.06;;;7.96
51561;BMP280;37654;51.262;17.058;2023-01-15T00:29:18;98421.63;;;7.98
51561;BMP280;37654;51.262;17.058;2023-01-15T00:31:51;98416.28;;;8.04
51561;BMP280;37654;51.262;17.058;2023-01-15T00:34:17;98426.50;;;8.07
51561;BMP280;37654;51.262;17.058;2023-01-15T00:36:42;98420.50;;;8.06
51561;BMP280;37654;51.262;17.058;2023-01-15T00:39:08;98419.50;;;8.10
51561;BMP280;37654;51.262;17.058;2023-01-15T00:41:33;98422.28;;;8.04
51561;BMP280;37654;51.262;17.058;2023-01-15T00:43:59;98416.00;;;8.13
51561;BMP280;37654;51.262;17.058;2023-01-15T00:46:24;98398.75;;;8.15
51561;BMP280;37654;51.262;17.058;2023-01-15T00:48:50;98408.91;;;8.19
51561;BMP280;37654;51.262;17.058;2023-01-15T00:51:15;98391.69;;;8.19
51561;BMP280;37654;51.262;17.058;2023-01-15T00:53:40;98399.38;;;8.21
51561;BMP280;37654;51.262;17.058;2023-01-15T00:56:06;98395.06;;;8.21
51561;BMP280;37654;51.262;17.058;2023-01-15T00:58:32;98378.81;;;8.19
51561;BMP280;37654;51.262;17.058;2023-01-15T01:00:58;98384.91;;;8.17
51561;BMP280;37654;51.262;17.058;2023-01-15T01:03:26;98385.81;;;8.16
51561;BMP280;37654;51.262;17.058;2023-01-15T01:05:51;98393.47;;;8.18
51561;BMP280;37654;51.262;17.058;2023-01-15T01:08:17;98379.72;;;8.19
51561;BMP280;37654;51.262;17.058;2023-01-15T01:10:43;98382.41;;;8.14
51561;BMP280;37654;51.262;17.058;2023-01-15T01:13:09;98364.50;;;8.10
51561;BMP280;37654;51.262;17.058;2023-01-15T01:15:36;98366.16;;;8.12
51561;BMP280;37654;51.262;17.058;2023-01-15T01:18:03;98380.19;;;8.04
51561;BMP280;37654;51.262;17.058;2023-01-15T01:20:29;98381.84;;;8.05
51561;BMP280;37654;51.262;17.058;2023-01-15T01:22:55;98374.84;;;8.10
51561;BMP280;37654;51.262;17.058;2023-01-15T01:25:20;98372.63;;;7.98
51561;BMP280;37654;51.262;17.058;2023-01-15T01:27:46;98373.25;;;8.06
51561;BMP280;37654;51.262;17.058;2023-01-15T01:30:12;98361.31;;;8.02
51561;BMP280;37654;51.262;17.058;2023-01-15T01:32:38;98363.22;;;7.97
51561;BMP280;37654;51.262;17.058;2023-01-15T01:35:04;98365.00;;;7.95
51561;BMP280;37654;51.262;17.058;2023-01-15T01:37:29;98355.47;;;7.97
51561;BMP280;37654;51.262;17.058;2023-01-15T01:39:55;98351.28;;;7.93
51561;BMP280;37654;51.262;17.058;2023-01-15T01:42:21;98357.94;;;8.00
51561;BMP280;37654;51.262;17.058;2023-01-15T01:47:17;98347.63;;;8.00
51561;BMP280;37654;51.262;17.058;2023-01-15T01:49:48;98332.41;;;7.92
51561;BMP280;37654;51.262;17.058;2023-01-15T01:52:22;98335.78;;;7.94
51561;BMP280;37654;51.262;17.058;2023-01-15T01:54:50;98328.09;;;7.93
51561;BMP280;37654;51.262;17.058;2023-01-15T01:57:17;98327.25;;;7.92
51561;BMP280;37654;51.262;17.058;2023-01-15T01:59:44;98323.94;;;7.89
51561;BMP280;37654;51.262;17.058;2023-01-15T02:02:10;98324.91;;;7.85
51561;BMP280;37654;51.262;17.058;2023-01-15T02:04:36;98325.72;;;7.87
51561;BMP280;37654;51.262;17.058;2023-01-15T02:07:02;98328.22;;;7.90
51561;BMP280;37654;51.262;17.058;2023-01-15T02:09:28;98335.97;;;7.89
51561;BMP280;37654;51.262;17.058;2023-01-15T02:11:57;98332.75;;;7.82
51561;BMP280;37654;51.262;17.058;2023-01-15T02:14:31;98327.50;;;7.85
51561;BMP280;37654;51.262;17.058;2023-01-15T02:17:19;98333.50;;;7.86
51561;BMP280;37654;51.262;17.058;2023-01-15T02:28:22;98308.47;;;7.89
51561;BMP280;37654;51.262;17.058;2023-01-15T02:30:54;98297.47;;;7.84
51561;BMP280;37654;51.262;17.058;2023-01-15T02:33:31;98291.50;;;7.82
51561;BMP280;37654;51.262;17.058;2023-01-15T02:35:59;98277.03;;;7.78
51561;BMP280;37654;51.262;17.058;2023-01-15T02:38:30;98271.09;;;7.76
51561;BMP280;37654;51.262;17.058;2023-01-15T02:40:58;98285.72;;;7.76
51561;BMP280;37654;51.262;17.058;2023-01-15T02:43:26;98284.72;;;7.80
51561;BMP280;37654;51.262;17.058;2023-01-15T02:45:54;98291.50;;;7.82
51561;BMP280;37654;51.262;17.058;2023-01-15T02:48:24;98282.91;;;7.83
51561;BMP280;37654;51.262;17.058;2023-01-15T02:50:57;98290.41;;;7.89
51561;BMP280;37654;51.262;17.058;2023-01-15T02:53:25;98280.16;;;7.88
51561;BMP280;37654;51.262;17.058;2023-01-15T02:55:57;98286.25;;;7.85
51561;BMP280;37654;51.262;17.058;2023-01-15T02:58:29;98287.22;;;7.83
51561;BMP280;37654;51.262;17.058;2023-01-15T03:00:58;98271.78;;;7.81
51561;BMP280;37654;51.262;17.058;2023-01-15T03:06:07;98260.56;;;7.82
51561;BMP280;37654;51.262;17.058;2023-01-15T03:08:35;98260.56;;;7.82
51561;BMP280;37654;51.262;17.058;2023-01-15T03:11:07;98260.56;;;7.82
51561;BMP280;37654;51.262;17.058;2023-01-15T03:16:22;98258.91;;;7.81
51561;BMP280;37654;51.262;17.058;2023-01-15T03:19:13;98248.59;;;7.81
51561;BMP280;37654;51.262;17.058;2023-01-15T03:21:57;98236.69;;;7.77
51561;BMP280;37654;51.262;17.058;2023-01-15T03:24:37;98228.97;;;7.77
51561;BMP280;37654;51.262;17.058;2023-01-15T03:27:04;98235.06;;;7.75
51561;BMP280;37654;51.262;17.058;2023-01-15T03:29:35;98233.22;;;7.78
51561;BMP280;37654;51.262;17.058;2023-01-15T03:32:02;98223.00;;;7.75
51561;BMP280;37654;51.262;17.058;2023-01-15T03:34:44;98214.59;;;7.70
51561;BMP280;37654;51.262;17.058;2023-01-15T03:37:10;98230.75;;;7.75
51561;BMP280;37654;51.262;17.058;2023-01-15T03:39:36;98226.38;;;7.77
51561;BMP280;37654;51.262;17.058;2023-01-15T03:42:38;98233.13;;;7.81
51561;BMP280;37654;51.262;17.058;2023-01-15T03:45:22;98219.66;;;7.73
51561;BMP280;37654;51.262;17.058;2023-01-15T03:47:52;98216.16;;;7.76
51561;BMP280;37654;51.262;17.058;2023-01-15T03:58:33;98204.47;;;7.64
51561;BMP280;37654;51.262;17.058;2023-01-15T04:01:02;98205.44;;;7.62
51561;BMP280;37654;51.262;17.058;2023-01-15T04:03:29;98200.41;;;7.59
51561;BMP280;37654;51.262;17.058;2023-01-15T04:05:59;98202.91;;;7.61
51561;BMP280;37654;51.262;17.058;2023-01-15T04:08:27;98201.28;;;7.58
51561;BMP280;37654;51.262;17.058;2023-01-15T04:10:55;98204.47;;;7.64
51561;BMP280;37654;51.262;17.058;2023-01-15T04:13:21;98196.41;;;7.75
51561;BMP280;37654;51.262;17.058;2023-01-15T04:15:47;98192.78;;;7.80
51561;BMP280;37654;51.262;17.058;2023-01-15T04:18:13;98193.56;;;7.82
51561;BMP280;37654;51.262;17.058;2023-01-15T04:20:38;98185.53;;;7.91
51561;BMP280;37654;51.262;17.058;2023-01-15T04:23:03;98181.09;;;7.94
51561;BMP280;37654;51.262;17.058;2023-01-15T04:25:29;98182.59;;;8.00
51561;BMP280;37654;51.262;17.058;2023-01-15T04:27:54;98170.88;;;7.91
51561;BMP280;37654;51.262;17.058;2023-01-15T04:30:20;98185.78;;;7.84
51561;BMP280;37654;51.262;17.058;2023-01-15T04:32:49;98183.47;;;7.76
51561;BMP280;37654;51.262;17.058;2023-01-15T04:35:16;98170.72;;;7.72
51561;BMP280;37654;51.262;17.058;2023-01-15T04:37:41;98169.84;;;7.73
51561;BMP280;37654;51.262;17.058;2023-01-15T04:40:07;98178.72;;;7.64
51561;BMP280;37654;51.262;17.058;2023-01-15T04:42:33;98165.06;;;7.63
51561;BMP280;37654;51.262;17.058;2023-01-15T04:45:11;98159.16;;;7.59
51561;BMP280;37654;51.262;17.058;2023-01-15T04:47:36;98161.69;;;7.61
51561;BMP280;37654;51.262;17.058;2023-01-15T04:50:02;98144.53;;;7.60
51561;BMP280;37654;51.262;17.058;2023-01-15T04:52:27;98137.91;;;7.53
51561;BMP280;37654;51.262;17.058;2023-01-15T04:54:54;98134.88;;;7.66
51561;BMP280;37654;51.262;17.058;2023-01-15T04:57:20;98136.50;;;7.68
51561;BMP280;37654;51.262;17.058;2023-01-15T04:59:45;98132.69;;;7.78
51561;BMP280;37654;51.262;17.058;2023-01-15T05:02:10;98130.13;;;7.78
51561;BMP280;37654;51.262;17.058;2023-01-15T05:04:36;98126.66;;;7.79
51561;BMP280;37654;51.262;17.058;2023-01-15T05:07:02;98124.97;;;7.78
51561;BMP280;37654;51.262;17.058;2023-01-15T05:09:28;98109.13;;;7.89
51561;BMP280;37654;51.262;17.058;2023-01-15T05:11:54;98111.22;;;7.79
51561;BMP280;37654;51.262;17.058;2023-01-15T05:14:19;98114.03;;;7.72
51561;BMP280;37654;51.262;17.058;2023-01-15T05:16:44;98115.84;;;7.70
51561;BMP280;37654;51.262;17.058;2023-01-15T05:19:10;98116.78;;;7.67
51561;BMP280;37654;51.262;17.058;2023-01-15T05:21:39;98110.75;;;7.68
51561;BMP280;37654;51.262;17.058;2023-01-15T05:24:06;98109.75;;;7.72
51561;BMP280;37654;51.262;17.058;2023-01-15T05:26:35;98121.72;;;7.73
51561;BMP280;37654;51.262;17.058;2023-01-15T05:29:01;98107.03;;;7.75
51561;BMP280;37654;51.262;17.058;2023-01-15T05:31:27;98110.47;;;7.76
51561;BMP280;37654;51.262;17.058;2023-01-15T05:33:53;98112.19;;;7.75
51561;BMP280;37654;51.262;17.058;2023-01-15T05:36:22;98107.94;;;7.74
51561;BMP280;37654;51.262;17.058;2023-01-15T05:38:47;98108.66;;;7.78
51561;BMP280;37654;51.262;17.058;2023-01-15T05:41:16;98110.50;;;7.74
51561;BMP280;37654;51.262;17.058;2023-01-15T05:43:59;98112.06;;;7.78
51561;BMP280;37654;51.262;17.058;2023-01-15T05:46:25;98113.81;;;7.78
51561;BMP280;37654;51.262;17.058;2023-01-15T05:48:50;98112.81;;;7.82
51561;BMP280;37654;51.262;17.058;2023-01-15T05:51:15;98117.34;;;7.75
51561;BMP280;37654;51.262;17.058;2023-01-15T05:53:41;98116.34;;;7.79
51561;BMP280;37654;51.262;17.058;2023-01-15T05:56:07;98112.97;;;7.77
51561;BMP280;37654;51.262;17.058;2023-01-15T05:58:33;98118.13;;;7.77
51561;BMP280;37654;51.262;17.058;2023-01-15T06:00:59;98116.47;;;7.76
51561;BMP280;37654;51.262;17.058;2023-01-15T06:03:25;98117.47;;;7.72
51561;BMP280;37654;51.262;17.058;2023-01-15T06:05:52;98118.56;;;7.65
51561;BMP280;37654;51.262;17.058;2023-01-15T06:08:17;98126.41;;;7.63
51561;BMP280;37654;51.262;17.058;2023-01-15T06:10:43;98131.47;;;7.65
51561;BMP280;37654;51.262;17.058;2023-01-15T06:13:09;98125.47;;;7.65
51561;BMP280;37654;51.262;17.058;2023-01-15T06:15:34;98123.63;;;7.68
51561;BMP280;37654;51.262;17.058;2023-01-15T06:18:00;98125.41;;;7.66
51561;BMP280;37654;51.262;17.058;2023-01-15T06:20:25;98119.41;;;7.66
51561;BMP280;37654;51.262;17.058;2023-01-15T06:22:51;98103.13;;;7.65
51561;BMP280;37654;51.262;17.058;2023-01-15T06:25:17;98109.13;;;7.64
51561;BMP280;37654;51.262;17.058;2023-01-15T06:27:43;98114.94;;;7.71
51561;BMP280;37654;51.262;17.058;2023-01-15T06:30:10;98113.09;;;7.74
51561;BMP280;37654;51.262;17.058;2023-01-15T06:32:36;98108.03;;;7.71
51561;BMP280;37654;51.262;17.058;2023-01-15T06:35:01;98110.75;;;7.68
51561;BMP280;37654;51.262;17.058;2023-01-15T06:37:26;98102.75;;;7.76
51561;BMP280;37654;51.262;17.058;2023-01-15T06:39:52;98106.06;;;7.79
51561;BMP280;37654;51.262;17.058;2023-01-15T06:42:17;98108.66;;;7.78
51561;BMP280;37654;51.262;17.058;2023-01-15T06:44:56;98096.47;;;7.83
51561;BMP280;37654;51.262;17.058;2023-01-15T06:47:36;98093.94;;;7.81
51561;BMP280;37654;51.262;17.058;2023-01-15T06:50:01;98091.34;;;7.81
51561;BMP280;37654;51.262;17.058;2023-01-15T06:52:28;98097.31;;;7.83
51561;BMP280;37654;51.262;17.058;2023-01-15T06:54:54;98090.25;;;7.88
51561;BMP280;37654;51.262;17.058;2023-01-15T06:57:20;98098.78;;;7.90
51561;BMP280;37654;51.262;17.058;2023-01-15T06:59:47;98097.97;;;7.88
51561;BMP280;37654;51.262;17.058;2023-01-15T07:02:13;98098.97;;;7.84
51561;BMP280;37654;51.262;17.058;2023-01-15T07:04:38;98096.22;;;7.89
51561;BMP280;37654;51.262;17.058;2023-01-15T07:07:03;98099.09;;;7.81
51561;BMP280;37654;51.262;17.058;2023-01-15T07:09:29;98099.09;;;7.81
51561;BMP280;37654;51.262;17.058;2023-01-15T07:11:54;98081.84;;;7.83
51561;BMP280;37654;51.262;17.058;2023-01-15T07:14:23;98089.50;;;7.85
51561;BMP280;37654;51.262;17.058;2023-01-15T07:16:49;98081.84;;;7.83
51561;BMP280;37654;51.262;17.058;2023-01-15T07:19:15;98079.31;;;7.82
51561;BMP280;37654;51.262;17.058;2023-01-15T07:21:41;98087.84;;;7.84
51561;BMP280;37654;51.262;17.058;2023-01-15T07:24:07;98081.00;;;7.83
51561;BMP280;37654;51.262;17.058;2023-01-15T07:26:33;98080.88;;;7.86
51561;BMP280;37654;51.262;17.058;2023-01-15T07:28:59;98089.59;;;7.82
51561;BMP280;37654;51.262;17.058;2023-01-15T07:31:24;98083.50;;;7.84
51561;BMP280;37654;51.262;17.058;2023-01-15T07:33:50;98082.31;;;7.92
51561;BMP280;37654;51.262;17.058;2023-01-15T07:36:15;98083.25;;;7.91
51561;BMP280;37654;51.262;17.058;2023-01-15T07:38:41;98080.38;;;7.99
51561;BMP280;37654;51.262;17.058;2023-01-15T07:41:06;98085.00;;;8.14
51561;BMP280;37654;51.262;17.058;2023-01-15T07:43:45;98073.06;;;8.11
51561;BMP280;37654;51.262;17.058;2023-01-15T07:46:25;98069.63;;;8.11
51561;BMP280;37654;51.262;17.058;2023-01-15T07:49:07;98075.81;;;8.07
51561;BMP280;37654;51.262;17.058;2023-01-15T07:51:47;98081.19;;;8.01
51561;BMP280;37654;51.262;17.058;2023-01-15T07:54:12;98071.72;;;8.00
51561;BMP280;37654;51.262;17.058;2023-01-15T07:56:37;98076.84;;;8.01
51561;BMP280;37654;51.262;17.058;2023-01-15T07:59:03;98069.84;;;8.05
51561;BMP280;37654;51.262;17.058;2023-01-15T08:01:28;98071.63;;;8.03
51561;BMP280;37654;51.262;17.058;2023-01-15T08:03:54;98079.28;;;8.06
51561;BMP280;37654;51.262;17.058;2023-01-15T08:06:19;98065.69;;;8.01
51561;BMP280;37654;51.262;17.058;2023-01-15T08:08:44;98065.69;;;8.01
51561;BMP280;37654;51.262;17.058;2023-01-15T08:11:10;98059.63;;;8.02
51561;BMP280;37654;51.262;17.058;2023-01-15T08:13:49;98057.75;;;8.07
51561;BMP280;37654;51.262;17.058;2023-01-15T08:16:28;98065.34;;;8.11
51561;BMP280;37654;51.262;17.058;2023-01-15T08:18:54;98079.94;;;8.11
51561;BMP280;37654;51.262;17.058;2023-01-15T08:21:19;98073.81;;;8.15
51561;BMP280;37654;51.262;17.058;2023-01-15T08:23:45;98078.09;;;8.14
51561;BMP280;37654;51.262;17.058;2023-01-15T08:26:12;98077.88;;;8.20
51561;BMP280;37654;51.262;17.058;2023-01-15T08:28:37;98076.22;;;8.19
51561;BMP280;37654;51.262;17.058;2023-01-15T08:31:05;98065.16;;;8.16
51561;BMP280;37654;51.262;17.058;2023-01-15T08:33:30;98071.78;;;8.22
51561;BMP280;37654;51.262;17.058;2023-01-15T08:35:56;98058.88;;;8.22
51561;BMP280;37654;51.262;17.058;2023-01-15T08:38:22;98057.97;;;8.23
51561;BMP280;37654;51.262;17.058;2023-01-15T08:40:52;98059.53;;;8.27
51561;BMP280;37654;51.262;17.058;2023-01-15T08:43:26;98054.44;;;8.26
51561;BMP280;37654;51.262;17.058;2023-01-15T08:45:55;98061.06;;;8.33
51561;BMP280;37654;51.262;17.058;2023-01-15T08:48:22;98057.63;;;8.32
51561;BMP280;37654;51.262;17.058;2023-01-15T08:50:47;98057.25;;;8.41
51561;BMP280;37654;51.262;17.058;2023-01-15T08:53:15;98062.31;;;8.44
51561;BMP280;37654;51.262;17.058;2023-01-15T08:55:40;98057.16;;;8.44
51561;BMP280;37654;51.262;17.058;2023-01-15T08:58:05;98053.66;;;8.45
51561;BMP280;37654;51.262;17.058;2023-01-15T09:00:31;98066.63;;;8.44
51561;BMP280;37654;51.262;17.058;2023-01-15T09:02:56;98050.91;;;8.49
51561;BMP280;37654;51.262;17.058;2023-01-15T09:05:22;98056.00;;;8.51
51561;BMP280;37654;51.262;17.058;2023-01-15T09:07:47;98064.78;;;8.47
51561;BMP280;37654;51.262;17.058;2023-01-15T09:10:13;98067.09;;;8.53
51561;BMP280;37654;51.262;17.058;2023-01-15T09:12:38;98046.59;;;8.50
51561;BMP280;37654;51.262;17.058;2023-01-15T09:15:04;98046.53;;;8.51
51561;BMP280;37654;51.262;17.058;2023-01-15T09:17:30;98046.34;;;8.56
51561;BMP280;37654;51.262;17.058;2023-01-15T09:19:57;98050.59;;;8.57
51561;BMP280;37654;51.262;17.058;2023-01-15T09:22:22;98047.78;;;8.63
51561;BMP280;37654;51.262;17.058;2023-01-15T09:24:47;98053.63;;;8.68
51561;BMP280;37654;51.262;17.058;2023-01-15T09:27:13;98054.25;;;8.73
51561;BMP280;37654;51.262;17.058;2023-01-15T09:29:38;98048.19;;;8.73
51561;BMP280;37654;51.262;17.058;2023-01-15T09:32:04;98055.69;;;8.79
51561;BMP280;37654;51.262;17.058;2023-01-15T09:34:29;98048.06;;;8.76
51561;BMP280;37654;51.262;17.058;2023-01-15T09:36:55;98048.16;;;8.75
51561;BMP280;37654;51.262;17.058;2023-01-15T09:39:20;98052.41;;;8.76
51561;BMP280;37654;51.262;17.058;2023-01-15T09:55:24;98049.03;;;8.74
51561;BMP280;37654;51.262;17.058;2023-01-15T09:57:54;98047.34;;;8.73
51561;BMP280;37654;51.262;17.058;2023-01-15T10:00:22;98047.28;;;8.74
51561;BMP280;37654;51.262;17.058;2023-01-15T10:02:55;98032.78;;;8.72
51561;BMP280;37654;51.262;17.058;2023-01-15T10:08:28;98028.22;;;8.78
51561;BMP280;37654;51.262;17.058;2023-01-15T10:11:27;98024.72;;;8.79
51561;BMP280;37654;51.262;17.058;2023-01-15T10:14:13;98020.47;;;8.78
51561;BMP280;37654;51.262;17.058;2023-01-15T10:16:40;98017.09;;;8.76
51561;BMP280;37654;51.262;17.058;2023-01-15T10:19:08;98022.34;;;8.75
51561;BMP280;37654;51.262;17.058;2023-01-15T10:22:01;98018.72;;;8.79
51561;BMP280;37654;51.262;17.058;2023-01-15T10:24:38;98013.25;;;8.86
51561;BMP280;37654;51.262;17.058;2023-01-15T10:27:19;98014.84;;;8.89
51561;BMP280;37654;51.262;17.058;2023-01-15T10:29:53;98014.72;;;8.92
51561;BMP280;37654;51.262;17.058;2023-01-15T10:37:40;97999.66;;;8.81
51561;BMP280;37654;51.262;17.058;2023-01-15T10:45:46;97998.59;;;8.87
51561;BMP280;37654;51.262;17.058;2023-01-15T10:48:29;97998.66;;;8.85
51561;BMP280;37654;51.262;17.058;2023-01-15T10:51:01;97993.75;;;8.79
51561;BMP280;37654;51.262;17.058;2023-01-15T10:53:39;97993.75;;;8.79
51561;BMP280;37654;51.262;17.058;2023-01-15T10:56:25;97989.09;;;8.87
51561;BMP280;37654;51.262;17.058;2023-01-15T11:01:29;97991.81;;;8.84
51561;BMP280;37654;51.262;17.058;2023-01-15T11:03:55;97993.34;;;8.88
51561;BMP280;37654;51.262;17.058;2023-01-15T11:06:22;98002.25;;;8.81
51561;BMP280;37654;51.262;17.058;2023-01-15T11:08:54;98001.38;;;8.82
51561;BMP280;37654;51.262;17.058;2023-01-15T11:11:25;97998.84;;;8.81
51561;BMP280;37654;51.262;17.058;2023-01-15T11:14:07;97987.63;;;8.82
51561;BMP280;37654;51.262;17.058;2023-01-15T11:16:47;98003.94;;;8.82
51561;BMP280;37654;51.262;17.058;2023-01-15T11:19:34;97988.47;;;8.82
51561;BMP280;37654;51.262;17.058;2023-01-15T11:22:21;97992.84;;;8.80
51561;BMP280;37654;51.262;17.058;2023-01-15T11:24:56;97995.19;;;8.86
51561;BMP280;37654;51.262;17.058;2023-01-15T11:27:31;97986.53;;;8.87
51561;BMP280;37654;51.262;17.058;2023-01-15T11:30:03;97996.97;;;8.84
51561;BMP280;37654;51.262;17.058;2023-01-15T11:32:34;98007.28;;;8.84
51561;BMP280;37654;51.262;17.058;2023-01-15T11:35:14;98012.97;;;8.92
51561;BMP280;37654;51.262;17.058;2023-01-15T11:37:40;98004.34;;;8.93
51561;BMP280;37654;51.262;17.058;2023-01-15T11:40:15;98005.22;;;8.92
51561;BMP280;37654;51.262;17.058;2023-01-15T11:42:45;98016.59;;;8.88
51561;BMP280;37654;51.262;17.058;2023-01-15T11:45:25;98019.16;;;8.88
51561;BMP280;37654;51.262;17.058;2023-01-15T11:48:16;98030.59;;;8.83
51561;BMP280;37654;51.262;17.058;2023-01-15T11:51:07;98042.00;;;8.77
51561;BMP280;37654;51.262;17.058;2023-01-15T11:53:54;98043.94;;;8.73
51561;BMP280;37654;51.262;17.058;2023-01-15T11:56:25;98046.72;;;8.68
51561;BMP280;37654;51.262;17.058;2023-01-15T11:58:56;98048.56;;;8.65
51561;BMP280;37654;51.262;17.058;2023-01-15T12:01:34;98049.28;;;8.68
51561;BMP280;37654;51.262;17.058;2023-01-15T12:04:19;98049.28;;;8.68
51561;BMP280;37654;51.262;17.058;2023-01-15T12:06:47;98045.09;;;8.66
51561;BMP280;37654;51.262;17.058;2023-01-15T12:09:26;98044.44;;;8.61
51561;BMP280;37654;51.262;17.058;2023-01-15T12:23:00;98081.00;;;8.28
51561;BMP280;37654;51.262;17.058;2023-01-15T12:28:23;98081.28;;;7.98
51561;BMP280;37654;51.262;17.058;2023-01-15T12:33:47;98097.22;;;7.86
51561;BMP280;37654;51.262;17.058;2023-01-15T12:41:31;98112.69;;;7.62
51561;BMP280;37654;51.262;17.058;2023-01-15T12:44:15;98122.06;;;7.39
51561;BMP280;37654;51.262;17.058;2023-01-15T12:46:56;98135.88;;;7.12
51561;BMP280;37654;51.262;17.058;2023-01-15T12:49:35;98142.03;;;7.09
51561;BMP280;37654;51.262;17.058;2023-01-15T12:52:08;98151.25;;;6.88
51561;BMP280;37654;51.262;17.058;2023-01-15T12:54:46;98161.97;;;6.75
51561;BMP280;37654;51.262;17.058;2023-01-15T12:57:32;98155.47;;;6.64
51561;BMP280;37654;51.262;17.058;2023-01-15T13:00:12;98161.78;;;6.54
51561;BMP280;37654;51.262;17.058;2023-01-15T13:03:00;98165.47;;;6.46
51561;BMP280;37654;51.262;17.058;2023-01-15T13:05:40;98180.94;;;6.44
51561;BMP280;37654;51.262;17.058;2023-01-15T13:08:23;98176.44;;;6.24
51561;BMP280;37654;51.262;17.058;2023-01-15T13:10:50;98189.53;;;6.16
51561;BMP280;37654;51.262;17.058;2023-01-15T13:21:21;98206.81;;;5.80
51561;BMP280;37654;51.262;17.058;2023-01-15T13:29:57;98208.84;;;5.66
51561;BMP280;37654;51.262;17.058;2023-01-15T13:32:23;98219.22;;;5.63
51561;BMP280;37654;51.262;17.058;2023-01-15T13:34:58;98226.88;;;5.65
51561;BMP280;37654;51.262;17.058;2023-01-15T13:37:36;98214.94;;;5.62
51561;BMP280;37654;51.262;17.058;2023-01-15T13:42:45;98215.84;;;5.61
51561;BMP280;37654;51.262;17.058;2023-01-15T13:47:45;98229.41;;;5.66
51561;BMP280;37654;51.262;17.058;2023-01-15T13:50:14;98226.00;;;5.66
51561;BMP280;37654;51.262;17.058;2023-01-15T13:52:40;98233.38;;;5.46
51561;BMP280;37654;51.262;17.058;2023-01-15T13:55:10;98235.81;;;5.50
51561;BMP280;37654;51.262;17.058;2023-01-15T13:57:39;98234.34;;;5.41
51561;BMP280;37654;51.262;17.058;2023-01-15T14:00:08;98252.38;;;5.38
51561;BMP280;37654;51.262;17.058;2023-01-15T14:02:51;98264.38;;;5.39
51561;BMP280;37654;51.262;17.058;2023-01-15T14:07:58;98278.31;;;5.29
51561;BMP280;37654;51.262;17.058;2023-01-15T14:10:36;98282.47;;;5.33
51561;BMP280;37654;51.262;17.058;2023-01-15T14:13:20;98283.44;;;5.29
51561;BMP280;37654;51.262;17.058;2023-01-15T14:26:27;98291.31;;;5.21
51561;BMP280;37654;51.262;17.058;2023-01-15T14:31:56;98296.94;;;5.37
51561;BMP280;37654;51.262;17.058;2023-01-15T14:34:26;98317.28;;;5.44
51561;BMP280;37654;51.262;17.058;2023-01-15T14:36:53;98316.34;;;5.48
51561;BMP280;37654;51.262;17.058;2023-01-15T14:41:55;98333.28;;;5.55
51561;BMP280;37654;51.262;17.058;2023-01-15T14:44:36;98325.66;;;5.52
51561;BMP280;37654;51.262;17.058;2023-01-15T14:47:03;98312.16;;;5.44
51561;BMP280;37654;51.262;17.058;2023-01-15T14:49:42;98307.94;;;5.42
51561;BMP280;37654;51.262;17.058;2023-01-15T14:52:07;98299.31;;;5.45
51561;BMP280;37654;51.262;17.058;2023-01-15T14:54:36;98304.59;;;5.38
51561;BMP280;37654;51.262;17.058;2023-01-15T14:57:06;98300.38;;;5.36
51561;BMP280;37654;51.262;17.058;2023-01-15T14:59:48;98291.84;;;5.35
51561;BMP280;37654;51.262;17.058;2023-01-15T15:02:21;98288.28;;;5.41
51561;BMP280;37654;51.262;17.058;2023-01-15T15:04:51;98288.31;;;5.39
51561;BMP280;37654;51.262;17.058;2023-01-15T15:07:22;98277.03;;;5.46
51561;BMP280;37654;51.262;17.058;2023-01-15T15:10:08;98264.97;;;5.49
51561;BMP280;37654;51.262;17.058;2023-01-15T15:12:43;98260.72;;;5.47
51561;BMP280;37654;51.262;17.058;2023-01-15T15:15:30;98269.31;;;5.46
51561;BMP280;37654;51.262;17.058;2023-01-15T15:18:08;98280.63;;;5.38
51561;BMP280;37654;51.262;17.058;2023-01-15T15:23:25;98267.63;;;5.09
51561;BMP280;37654;51.262;17.058;2023-01-15T15:25:58;98277.16;;;5.04
51561;BMP280;37654;51.262;17.058;2023-01-15T15:28:25;98277.03;;;5.10
51561;BMP280;37654;51.262;17.058;2023-01-15T15:30:51;98272.09;;;5.03
51561;BMP280;37654;51.262;17.058;2023-01-15T15:33:24;98291.66;;;5.07
51561;BMP280;37654;51.262;17.058;2023-01-15T15:35:55;98284.56;;;5.18
51561;BMP280;37654;51.262;17.058;2023-01-15T15:38:23;98285.47;;;5.15
51561;BMP280;37654;51.262;17.058;2023-01-15T15:40:51;98282.25;;;5.07
51561;BMP280;37654;51.262;17.058;2023-01-15T15:43:23;98288.22;;;5.08
51561;BMP280;37654;51.262;17.058;2023-01-15T15:46:03;98302.13;;;4.98
51561;BMP280;37654;51.262;17.058;2023-01-15T15:48:48;98317.69;;;4.90
51561;BMP280;37654;51.262;17.058;2023-01-15T15:54:23;98336.63;;;4.85
51561;BMP280;37654;51.262;17.058;2023-01-15T15:59:33;98373.31;;;4.89
51561;BMP280;37654;51.262;17.058;2023-01-15T16:02:20;98381.78;;;4.93
51561;BMP280;37654;51.262;17.058;2023-01-15T16:04:53;98393.78;;;4.91
51561;BMP280;37654;51.262;17.058;2023-01-15T16:07:24;98392.09;;;4.90
51561;BMP280;37654;51.262;17.058;2023-01-15T16:09:55;98389.59;;;4.88
51561;BMP280;37654;51.262;17.058;2023-01-15T16:12:21;98376.06;;;4.80
51561;BMP280;37654;51.262;17.058;2023-01-15T16:14:47;98386.34;;;4.80
51561;BMP280;37654;51.262;17.058;2023-01-15T16:17:14;98387.22;;;4.79
51561;BMP280;37654;51.262;17.058;2023-01-15T16:19:41;98393.25;;;4.76
51561;BMP280;37654;51.262;17.058;2023-01-15T16:22:08;98399.16;;;4.80
51561;BMP280;37654;51.262;17.058;2023-01-15T16:24:35;98403.44;;;4.79
51561;BMP280;37654;51.262;17.058;2023-01-15T16:27:04;98403.47;;;4.78
51561;BMP280;37654;51.262;17.058;2023-01-15T16:29:33;98412.94;;;4.76